Time;durP1;ratioP1;P1;durP2;ratioP2;P2;SDS_P1;SDS_P2;PMS_P1;PMS_P2;Temp;Humidity;BMP_temperature;BMP_pressure;BME280_temperature;BME280_humidity;BME280_pressure;Samples;Min_cycle;Max_cycle;Signal;HPM_P1;HPM_P2
2022/05/23 00:09:48;;;;;;;7.13;2.47;;;19.00;66.90;;;;;;21087561;28;20717;-64
2022/05/23 00:19:50;;;;;;;7.13;2.60;;;18.80;68.10;;;;;;21086090;28;20227;-63
2022/05/23 00:29:52;;;;;;;3.83;2.30;;;18.70;68.70;;;;;;21085262;28;20233;-62
2022/05/23 00:39:54;;;;;;;6.27;2.50;;;18.50;69.50;;;;;;21050549;28;20561;-65
2022/05/23 00:49:56;;;;;;;4.77;2.70;;;18.30;69.90;;;;;;21000580;28;20245;-63
2022/05/23 00:59:59;;;;;;;7.17;3.07;;;18.20;70.40;;;;;;21037678;28;20706;-64
2022/05/23 01:10:02;;;;;;;6.20;3.13;;;18.10;70.60;;;;;;21051922;28;20234;-66
2022/05/23 01:20:04;;;;;;;5.43;3.10;;;18.00;70.70;;;;;;20998802;28;20234;-70
2022/05/23 01:30:07;;;;;;;6.17;3.00;;;18.00;71.00;;;;;;20996989;28;20231;-61
2022/05/23 01:40:12;;;;;;;6.80;3.20;;;17.80;71.60;;;;;;21032593;28;20209;-64
2022/05/23 01:50:14;;;;;;;5.43;3.63;;;17.60;72.70;;;;;;21079857;28;20627;-62
2022/05/23 02:10:38;;;;;;;5.57;3.77;;;17.30;74.40;;;;;;21078281;28;20230;-67
2022/05/23 02:20:39;;;;;;;9.80;3.90;;;17.30;74.70;;;;;;21080912;28;20705;-62
2022/05/23 02:30:42;;;;;;;6.63;4.40;;;17.20;75.80;;;;;;21095384;28;20244;-62
2022/05/23 02:40:44;;;;;;;7.10;3.90;;;17.10;76.50;;;;;;21053377;28;20218;-61
2022/05/23 02:50:45;;;;;;;9.57;4.03;;;16.90;77.50;;;;;;20992642;28;20242;-63
2022/05/23 03:00:47;;;;;;;5.97;4.87;;;16.80;78.00;;;;;;21008993;28;20217;-63
2022/05/23 03:10:51;;;;;;;6.77;4.37;;;16.70;78.80;;;;;;21008014;28;20692;-61
2022/05/23 03:20:59;;;;;;;6.23;4.20;;;16.80;79.20;;;;;;21008523;28;20717;-62
2022/05/23 03:31:03;;;;;;;5.17;4.30;;;16.80;79.40;;;;;;21006228;28;20238;-64
2022/05/23 03:41:07;;;;;;;9.53;4.67;;;16.80;79.60;;;;;;21049697;28;20617;-63
2022/05/23 03:51:09;;;;;;;7.73;4.70;;;16.70;80.10;;;;;;21089256;28;20622;-64
2022/05/23 04:01:14;;;;;;;6.77;4.70;;;16.80;80.00;;;;;;21070345;28;20224;-63
2022/05/23 04:11:16;;;;;;;7.63;4.80;;;16.90;79.80;;;;;;21087388;28;20704;-66
2022/05/23 04:21:18;;;;;;;12.43;5.23;;;17.00;79.80;;;;;;21086666;28;20233;-62
2022/05/23 04:31:20;;;;;;;6.87;5.23;;;17.10;78.40;;;;;;21067462;28;20264;-63
2022/05/23 04:41:23;;;;;;;10.97;5.43;;;17.10;78.00;;;;;;21038613;28;20264;-63
2022/05/23 04:51:25;;;;;;;8.27;4.97;;;17.10;78.10;;;;;;20999602;28;20228;-71
2022/05/23 05:01:26;;;;;;;10.57;5.13;;;17.10;78.70;;;;;;20997564;28;20213;-71
2022/05/23 05:11:28;;;;;;;11.97;5.60;;;17.10;80.00;;;;;;20998493;28;20239;-68
2022/05/23 05:21:30;;;;;;;9.50;5.30;;;17.00;80.70;;;;;;20997806;28;20233;-67
2022/05/23 05:31:48;;;;;;;12.97;5.40;;;17.00;81.50;;;;;;20996432;28;20243;-66
2022/05/23 05:42:00;;;;;;;7.60;4.60;;;17.10;81.00;;;;;;20995629;28;20213;-74
2022/05/23 05:52:03;;;;;;;6.53;5.00;;;17.30;80.40;;;;;;20993832;28;20236;-72
2022/05/23 06:02:07;;;;;;;6.40;4.60;;;17.50;79.60;;;;;;20995049;28;20217;-69
2022/05/23 06:12:09;;;;;;;15.97;6.47;;;17.60;79.20;;;;;;21025399;28;20306;-62
2022/05/23 06:22:12;;;;;;;7.83;4.93;;;17.70;78.90;;;;;;21013336;28;20267;-66
2022/05/23 06:32:14;;;;;;;16.67;6.00;;;17.80;78.60;;;;;;21003134;28;20242;-61
2022/05/23 06:42:15;;;;;;;12.43;5.67;;;17.90;79.20;;;;;;20993284;28;20217;-60
2022/05/23 06:52:18;;;;;;;9.70;5.73;;;17.90;80.60;;;;;;20992917;28;20266;-62
2022/05/23 07:02:19;;;;;;;9.20;5.90;;;18.00;82.20;;;;;;20992304;28;20545;-63
2022/05/23 07:12:23;;;;;;;6.27;4.57;;;18.00;83.70;;;;;;21001137;28;20232;-62
2022/05/23 07:22:27;;;;;;;6.17;4.37;;;18.20;85.40;;;;;;21007480;28;20232;-72
2022/05/23 07:32:29;;;;;;;6.37;4.80;;;18.40;86.40;;;;;;21007123;28;20239;-73
2022/05/23 07:42:31;;;;;;;5.77;4.30;;;18.60;87.10;;;;;;21005580;28;20224;-76
2022/05/23 07:52:34;;;;;;;6.83;4.57;;;18.90;87.70;;;;;;21004949;28;20770;-62
2022/05/23 08:02:35;;;;;;;5.33;4.17;;;19.20;88.10;;;;;;21003767;28;20213;-63
2022/05/23 08:12:38;;;;;;;8.77;4.00;;;19.50;88.00;;;;;;20985438;28;20240;-61
2022/05/23 08:22:39;;;;;;;6.60;3.70;;;19.70;87.40;;;;;;21001753;28;20598;-61
2022/05/23 08:32:41;;;;;;;6.53;3.30;;;19.90;86.80;;;;;;21001144;28;20705;-62
2022/05/23 08:42:49;;;;;;;6.07;3.10;;;20.20;86.00;;;;;;21001364;28;20262;-63
2022/05/23 08:52:54;;;;;;;5.67;2.80;;;20.50;85.20;;;;;;21000134;28;20246;-75
2022/05/23 09:03:05;;;;;;;5.20;3.10;;;20.90;84.60;;;;;;20998488;28;20221;-62
2022/05/23 09:13:08;;;;;;;6.37;2.97;;;21.10;83.40;;;;;;20997022;28;20762;-63
2022/05/23 09:23:28;;;;;;;5.03;2.80;;;21.20;82.60;;;;;;20996431;28;20247;-60
2022/05/23 09:33:31;;;;;;;8.67;3.40;;;21.40;82.00;;;;;;20996223;28;20325;-66
2022/05/23 09:54:04;;;;;;;3.27;2.80;;;21.80;81.70;;;;;;20994929;28;20642;-67
2022/05/23 10:04:18;;;;;;;6.90;3.30;;;22.20;81.30;;;;;;20994150;28;20251;-68
2022/05/23 10:14:23;;;;;;;8.13;2.50;;;22.30;80.70;;;;;;20993800;28;20663;-69
2022/05/23 10:24:27;;;;;;;6.10;2.23;;;22.50;79.70;;;;;;20993703;28;20570;-63
2022/05/23 10:34:41;;;;;;;5.40;2.50;;;22.70;77.90;;;;;;20993840;28;20309;-66
2022/05/23 10:45:16;;;;;;;5.77;2.30;;;22.90;75.60;;;;;;20998487;28;20233;-63
2022/05/23 10:55:27;;;;;;;3.50;2.20;;;23.00;74.20;;;;;;21014743;28;20207;-67
2022/05/23 11:05:59;;;;;;;4.43;2.10;;;23.30;73.60;;;;;;21028936;28;20235;-63
2022/05/23 11:16:19;;;;;;;6.20;2.47;;;23.50;73.10;;;;;;21005001;28;20291;-63
2022/05/23 11:26:27;;;;;;;4.83;2.30;;;23.80;73.20;;;;;;21026927;28;20575;-61
2022/05/23 11:36:57;;;;;;;4.70;2.30;;;23.90;73.00;;;;;;21043590;28;20211;-62
2022/05/23 11:47:03;;;;;;;8.23;2.30;;;24.10;73.30;;;;;;21026257;28;20322;-62
2022/05/23 11:57:05;;;;;;;6.50;2.20;;;24.20;73.30;;;;;;21003757;28;20640;-62
2022/05/23 12:07:07;;;;;;;7.03;2.20;;;24.30;72.30;;;;;;21003547;28;20337;-64
2022/05/23 12:17:20;;;;;;;3.53;2.23;;;24.40;71.70;;;;;;21002634;28;20230;-66
2022/05/23 12:27:34;;;;;;;4.27;2.27;;;24.60;71.90;;;;;;21001006;28;20325;-64
2022/05/23 12:37:41;;;;;;;5.03;2.90;;;24.80;71.50;;;;;;21000927;28;20207;-75
2022/05/23 12:48:14;;;;;;;3.70;2.83;;;24.70;71.50;;;;;;20999774;28;20238;-75
2022/05/23 12:58:44;;;;;;;11.63;4.00;;;24.70;72.10;;;;;;20999032;28;20204;-73
2022/05/23 13:08:56;;;;;;;4.70;2.70;;;24.60;73.00;;;;;;20997439;28;20563;-63
2022/05/23 13:29:36;;;;;;;7.70;3.40;;;24.40;74.10;;;;;;20996678;28;20262;-65
2022/05/23 13:39:46;;;;;;;5.40;2.60;;;24.30;74.60;;;;;;20995633;28;20207;-63
2022/05/23 13:50:05;;;;;;;6.63;3.10;;;24.10;75.20;;;;;;20977388;28;20227;-62
2022/05/23 14:00:18;;;;;;;8.47;2.50;;;24.00;76.50;;;;;;20982337;28;20211;-63
2022/05/23 14:10:23;;;;;;;4.63;2.70;;;23.90;77.40;;;;;;20995267;28;20284;-66
2022/05/23 14:20:30;;;;;;;4.00;2.80;;;23.80;78.50;;;;;;20994046;28;20233;-69
2022/05/23 14:30:35;;;;;;;3.90;2.60;;;23.80;79.80;;;;;;20993386;28;20241;-71
2022/05/23 14:40:42;;;;;;;6.13;3.37;;;23.80;80.70;;;;;;20993375;28;20204;-69
2022/05/23 14:50:54;;;;;;;6.17;2.90;;;23.80;81.70;;;;;;20993094;28;20238;-63
2022/05/23 15:00:56;;;;;;;7.50;2.67;;;23.90;82.70;;;;;;20993705;28;20226;-65
2022/05/23 15:10:59;;;;;;;5.37;2.60;;;24.10;83.60;;;;;;20992835;28;20270;-61
2022/05/23 15:21:01;;;;;;;9.70;3.00;;;24.20;83.10;;;;;;20993191;28;20726;-73
2022/05/23 15:31:06;;;;;;;6.40;2.60;;;24.20;82.10;;;;;;20997674;28;20247;-66
2022/05/23 15:41:09;;;;;;;4.23;2.10;;;24.50;80.80;;;;;;21005784;28;20213;-68
2022/05/23 15:51:12;;;;;;;7.47;2.33;;;24.50;77.60;;;;;;21005527;28;20227;-65
2022/05/23 16:01:17;;;;;;;6.07;2.63;;;24.50;75.90;;;;;;21004349;28;20280;-75
2022/05/23 16:11:28;;;;;;;6.60;2.10;;;24.70;74.80;;;;;;21003925;28;20280;-75
2022/05/23 16:21:31;;;;;;;5.07;2.30;;;24.70;74.30;;;;;;21003014;28;20581;-69
2022/05/23 16:31:33;;;;;;;4.60;2.37;;;24.60;74.50;;;;;;21014271;28;20266;-74
2022/05/23 16:41:37;;;;;;;5.67;2.40;;;24.70;75.20;;;;;;21037456;28;20203;-70
2022/05/23 16:51:41;;;;;;;5.93;2.50;;;24.60;75.50;;;;;;21044072;28;20231;-73
2022/05/23 17:01:43;;;;;;;7.00;2.43;;;24.40;76.20;;;;;;21011438;28;20206;-71
2022/05/23 17:11:44;;;;;;;7.67;2.93;;;24.40;77.00;;;;;;21008359;28;20235;-61
2022/05/23 17:21:46;;;;;;;5.53;2.93;;;24.20;78.20;;;;;;20999040;28;20231;-64
2022/05/23 17:31:48;;;;;;;7.93;3.40;;;24.00;80.10;;;;;;20998131;28;20246;-67
2022/05/23 17:41:50;;;;;;;8.90;3.43;;;23.80;82.40;;;;;;20997041;28;20681;-64
2022/05/23 17:51:51;;;;;;;5.33;3.53;;;23.70;84.20;;;;;;20996236;28;20313;-75
2022/05/23 18:01:55;;;;;;;9.70;3.70;;;23.60;85.60;;;;;;20978739;28;20233;-72
2022/05/23 18:11:57;;;;;;;7.87;3.50;;;23.50;87.00;;;;;;20995908;28;20239;-75
2022/05/23 18:22:00;;;;;;;8.60;3.60;;;23.40;88.20;;;;;;20995156;28;20246;-64
2022/05/23 18:32:03;;;;;;;6.47;3.10;;;23.30;89.30;;;;;;20995293;28;20266;-64
2022/05/23 18:42:05;;;;;;;10.80;2.93;;;23.20;89.50;;;;;;20994793;28;20238;-62
2022/05/23 18:52:12;;;;;;;6.30;2.97;;;23.10;89.50;;;;;;20993708;28;20592;-64
2022/05/23 19:02:14;;;;;;;6.43;2.90;;;23.00;89.30;;;;;;20993173;28;20254;-62
2022/05/23 19:12:17;;;;;;;10.57;3.67;;;22.90;88.40;;;;;;20992177;28;20266;-62
2022/05/23 19:22:19;;;;;;;10.07;2.50;;;22.70;87.10;;;;;;21007925;28;20235;-65
2022/05/23 19:32:21;;;;;;;7.40;2.50;;;22.50;86.30;;;;;;21007449;28;20570;-66
2022/05/23 19:42:24;;;;;;;8.93;2.43;;;22.30;87.20;;;;;;21006668;28;20199;-70
2022/05/23 19:52:25;;;;;;;7.00;2.70;;;21.90;89.70;;;;;;21005356;28;20233;-67
2022/05/23 20:12:52;;;;;;;6.03;2.40;;;21.40;91.80;;;;;;21003871;28;20241;-76
2022/05/23 20:22:54;;;;;;;8.73;2.47;;;21.20;92.40;;;;;;21002595;28;20231;-73
2022/05/23 20:32:58;;;;;;;5.73;2.40;;;21.10;92.70;;;;;;21002651;28;20240;-63
2022/05/23 20:43:01;;;;;;;9.43;2.70;;;20.90;93.10;;;;;;21001477;28;20206;-62
2022/05/23 20:53:03;;;;;;;5.30;2.47;;;20.80;93.30;;;;;;21000439;28;20240;-61
2022/05/23 21:03:05;;;;;;;7.80;2.73;;;20.60;93.40;;;;;;20982266;28;20210;-61
2022/05/23 21:13:07;;;;;;;6.53;3.43;;;20.60;93.70;;;;;;20998911;28;20245;-63
2022/05/23 21:23:09;;;;;;;8.27;2.57;;;20.40;93.90;;;;;;20998614;28;20709;-65
2022/05/23 21:33:13;;;;;;;11.50;2.23;;;20.40;94.10;;;;;;20997237;28;20238;-62
2022/05/23 21:53:37;;;;;;;4.70;2.20;;;20.30;94.20;;;;;;21001456;28;20242;-62
2022/05/23 22:03:39;;;;;;;6.47;2.20;;;20.20;94.10;;;;;;21033204;28;20246;-65
2022/05/23 22:13:41;;;;;;;14.40;2.00;;;20.20;94.00;;;;;;21023069;28;20238;-63
2022/05/23 22:23:43;;;;;;;4.60;1.70;;;20.20;93.90;;;;;;20995288;28;20234;-63
2022/05/23 22:33:45;;;;;;;4.00;1.50;;;20.20;93.80;;;;;;20994542;28;20240;-63
2022/05/23 22:43:47;;;;;;;6.43;1.70;;;20.10;93.70;;;;;;21006592;28;20224;-66
2022/05/23 22:53:51;;;;;;;3.83;1.50;;;20.10;93.70;;;;;;21009761;28;20236;-66
2022/05/23 23:14:13;;;;;;;7.17;1.77;;;20.00;93.80;;;;;;21008252;28;20239;-72
2022/05/23 23:24:15;;;;;;;5.43;1.70;;;19.90;93.80;;;;;;21007685;28;20237;-70
2022/05/23 23:44:38;;;;;;;3.60;1.73;;;19.90;94.10;;;;;;21006114;28;20213;-63
2022/05/23 23:54:39;;;;;;;4.47;1.60;;;19.90;94.20;;;;;;21004417;28;20316;-68
